sensor_id;sensor_type;location;lat;lon;timestamp;pressure;altitude;pressure_sealevel;temperature;humidity
61292;BME280;47165;42.664;23.368;2024-01-07T00:00:28;93544.41;;;10.59;61.41
61292;BME280;47165;42.664;23.368;2024-01-07T00:02:55;93553.53;;;10.65;61.43
61292;BME280;47165;42.664;23.368;2024-01-07T00:05:20;93547.84;;;10.60;62.02
61292;BME280;47165;42.664;23.368;2024-01-07T00:07:46;93547.53;;;10.53;62.39
61292;BME280;47165;42.664;23.368;2024-01-07T00:10:13;93532.13;;;10.50;62.56
61292;BME280;47165;42.664;23.368;2024-01-07T00:12:39;93525.72;;;10.54;62.48
61292;BME280;47165;42.664;23.368;2024-01-07T00:15:05;93523.91;;;10.55;62.58
61292;BME280;47165;42.664;23.368;2024-01-07T00:17:30;93515.28;;;10.54;62.53
61292;BME280;47165;42.664;23.368;2024-01-07T00:19:56;93509.91;;;10.56;62.21
61292;BME280;47165;42.664;23.368;2024-01-07T00:22:21;93509.66;;;10.59;62.23
61292;BME280;47165;42.664;23.368;2024-01-07T00:24:47;93508.84;;;10.58;62.52
61292;BME280;47165;42.664;23.368;2024-01-07T00:27:12;93504.78;;;10.65;62.34
61292;BME280;47165;42.664;23.368;2024-01-07T00:29:37;93509.75;;;10.69;62.25
61292;BME280;47165;42.664;23.368;2024-01-07T00:32:03;93501.34;;;10.65;62.32
61292;BME280;47165;42.664;23.368;2024-01-07T00:34:28;93496.56;;;10.70;62.25
61292;BME280;47165;42.664;23.368;2024-01-07T00:36:54;93482.81;;;10.68;62.22
61292;BME280;47165;42.664;23.368;2024-01-07T00:39:20;93479.84;;;10.73;61.97
61292;BME280;47165;42.664;23.368;2024-01-07T00:41:46;93481.16;;;10.67;61.84
61292;BME280;47165;42.664;23.368;2024-01-07T00:44:11;93472.16;;;10.60;62.05
61292;BME280;47165;42.664;23.368;2024-01-07T00:46:38;93477.53;;;10.58;61.95
61292;BME280;47165;42.664;23.368;2024-01-07T00:49:03;93467.09;;;10.58;61.93
61292;BME280;47165;42.664;23.368;2024-01-07T00:51:29;93457.91;;;10.64;61.46
61292;BME280;47165;42.664;23.368;2024-01-07T00:53:54;93446.53;;;10.65;60.96
61292;BME280;47165;42.664;23.368;2024-01-07T00:56:19;93444.31;;;10.60;60.71
61292;BME280;47165;42.664;23.368;2024-01-07T00:58:45;93446.22;;;10.58;60.50
61292;BME280;47165;42.664;23.368;2024-01-07T01:01:10;93446.22;;;10.58;60.06
61292;BME280;47165;42.664;23.368;2024-01-07T01:03:36;93447.53;;;10.53;60.47
61292;BME280;47165;42.664;23.368;2024-01-07T01:06:01;93456.88;;;10.55;59.79
61292;BME280;47165;42.664;23.368;2024-01-07T01:08:28;93458.72;;;10.43;59.49
61292;BME280;47165;42.664;23.368;2024-01-07T01:10:53;93446.19;;;10.26;59.33
61292;BME280;47165;42.664;23.368;2024-01-07T01:13:18;93435.63;;;10.27;59.02
61292;BME280;47165;42.664;23.368;2024-01-07T01:15:44;93428.44;;;10.08;59.88
61292;BME280;47165;42.664;23.368;2024-01-07T01:18:09;93414.59;;;10.08;59.79
61292;BME280;47165;42.664;23.368;2024-01-07T01:20:35;93416.88;;;10.01;59.97
61292;BME280;47165;42.664;23.368;2024-01-07T01:23:00;93407.50;;;9.99;60.18
61292;BME280;47165;42.664;23.368;2024-01-07T01:25:25;93405.47;;;10.02;60.21
61292;BME280;47165;42.664;23.368;2024-01-07T01:27:52;93401.09;;;10.03;60.33
61292;BME280;47165;42.664;23.368;2024-01-07T01:30:18;93373.41;;;9.91;60.36
61292;BME280;47165;42.664;23.368;2024-01-07T01:32:43;93379.06;;;9.96;60.69
61292;BME280;47165;42.664;23.368;2024-01-07T01:35:09;93371.25;;;9.96;60.96
61292;BME280;47165;42.664;23.368;2024-01-07T01:37:34;93370.44;;;9.95;60.75
61292;BME280;47165;42.664;23.368;2024-01-07T01:40:00;93358.78;;;9.99;60.77
61292;BME280;47165;42.664;23.368;2024-01-07T01:42:26;93362.50;;;9.97;60.90
61292;BME280;47165;42.664;23.368;2024-01-07T01:44:51;93355.16;;;9.91;61.09
61292;BME280;47165;42.664;23.368;2024-01-07T01:47:18;93353.81;;;9.96;61.12
61292;BME280;47165;42.664;23.368;2024-01-07T01:49:45;93333.53;;;10.00;60.90
61292;BME280;47165;42.664;23.368;2024-01-07T01:52:12;93323.94;;;10.00;60.96
61292;BME280;47165;42.664;23.368;2024-01-07T01:54:38;93317.19;;;9.98;61.62
61292;BME280;47165;42.664;23.368;2024-01-07T01:57:04;93309.84;;;10.03;61.75
61292;BME280;47165;42.664;23.368;2024-01-07T01:59:31;93306.03;;;10.07;61.18
61292;BME280;47165;42.664;23.368;2024-01-07T02:01:59;93307.34;;;10.01;60.79
61292;BME280;47165;42.664;23.368;2024-01-07T02:04:25;93306.03;;;10.07;60.70
61292;BME280;47165;42.664;23.368;2024-01-07T02:06:51;93312.50;;;10.13;61.04
61292;BME280;47165;42.664;23.368;2024-01-07T02:09:16;93316.56;;;10.05;61.90
61292;BME280;47165;42.664;23.368;2024-01-07T02:11:42;93324.41;;;10.05;63.27
61292;BME280;47165;42.664;23.368;2024-01-07T02:14:07;93318.78;;;10.10;63.95
61292;BME280;47165;42.664;23.368;2024-01-07T02:16:33;93305.25;;;10.16;63.85
61292;BME280;47165;42.664;23.368;2024-01-07T02:18:58;93279.44;;;10.13;64.30
61292;BME280;47165;42.664;23.368;2024-01-07T02:21:24;93287.41;;;10.33;64.23
61292;BME280;47165;42.664;23.368;2024-01-07T02:23:49;93281.94;;;10.36;64.50
61292;BME280;47165;42.664;23.368;2024-01-07T02:26:15;93258.66;;;10.44;64.92
61292;BME280;47165;42.664;23.368;2024-01-07T02:28:41;93238.78;;;10.53;64.91
61292;BME280;47165;42.664;23.368;2024-01-07T02:31:06;93233.84;;;10.59;64.82
61292;BME280;47165;42.664;23.368;2024-01-07T02:33:32;93220.97;;;10.67;64.39
61292;BME280;47165;42.664;23.368;2024-01-07T02:35:58;93213.25;;;10.66;63.53
61292;BME280;47165;42.664;23.368;2024-01-07T02:38:23;93217.25;;;10.60;63.32
61292;BME280;47165;42.664;23.368;2024-01-07T02:40:48;93218.63;;;10.64;63.77
61292;BME280;47165;42.664;23.368;2024-01-07T02:43:14;93226.19;;;10.67;63.98
61292;BME280;47165;42.664;23.368;2024-01-07T02:45:39;93225.09;;;10.70;63.76
61292;BME280;47165;42.664;23.368;2024-01-07T02:48:05;93223.56;;;10.67;63.82
61292;BME280;47165;42.664;23.368;2024-01-07T02:50:32;93234.19;;;10.76;63.42
61292;BME280;47165;42.664;23.368;2024-01-07T02:52:57;93244.63;;;10.76;63.42
61292;BME280;47165;42.664;23.368;2024-01-07T02:55:23;93228.72;;;10.79;63.26
61292;BME280;47165;42.664;23.368;2024-01-07T02:57:48;93226.63;;;10.82;63.69
61292;BME280;47165;42.664;23.368;2024-01-07T03:00:14;93231.16;;;10.80;64.26
61292;BME280;47165;42.664;23.368;2024-01-07T03:02:39;93247.84;;;10.89;64.62
61292;BME280;47165;42.664;23.368;2024-01-07T03:05:05;93247.69;;;10.91;65.57
61292;BME280;47165;42.664;23.368;2024-01-07T03:07:30;93239.75;;;11.02;65.11
61292;BME280;47165;42.664;23.368;2024-01-07T03:09:56;93241.84;;;11.08;65.51
61292;BME280;47165;42.664;23.368;2024-01-07T03:12:21;93238.00;;;11.12;65.46
61292;BME280;47165;42.664;23.368;2024-01-07T03:14:47;93240.63;;;11.22;65.19
61292;BME280;47165;42.664;23.368;2024-01-07T03:17:12;93245.88;;;11.22;65.81
61292;BME280;47165;42.664;23.368;2024-01-07T03:19:40;93240.09;;;11.28;65.63
61292;BME280;47165;42.664;23.368;2024-01-07T03:22:07;93254.00;;;11.38;65.48
61292;BME280;47165;42.664;23.368;2024-01-07T03:24:33;93257.16;;;11.42;65.42
61292;BME280;47165;42.664;23.368;2024-01-07T03:26:58;93258.16;;;11.51;65.42
61292;BME280;47165;42.664;23.368;2024-01-07T03:29:23;93257.16;;;11.52;65.63
61292;BME280;47165;42.664;23.368;2024-01-07T03:31:49;93249.06;;;11.55;65.87
61292;BME280;47165;42.664;23.368;2024-01-07T03:34:16;93249.34;;;11.61;66.03
61292;BME280;47165;42.664;23.368;2024-01-07T03:36:41;93247.97;;;11.67;66.02
61292;BME280;47165;42.664;23.368;2024-01-07T03:39:07;93244.81;;;11.73;65.97
61292;BME280;47165;42.664;23.368;2024-01-07T03:41:32;93248.38;;;11.72;66.72
61292;BME280;47165;42.664;23.368;2024-01-07T03:43:57;93246.44;;;11.74;66.75
61292;BME280;47165;42.664;23.368;2024-01-07T03:46:23;93242.47;;;11.80;66.69
61292;BME280;47165;42.664;23.368;2024-01-07T03:48:48;93235.44;;;11.80;67.04
61292;BME280;47165;42.664;23.368;2024-01-07T03:51:14;93236.41;;;11.79;66.58
61292;BME280;47165;42.664;23.368;2024-01-07T03:53:39;93235.00;;;11.85;66.21
61292;BME280;47165;42.664;23.368;2024-01-07T03:56:05;93236.81;;;11.84;65.43
61292;BME280;47165;42.664;23.368;2024-01-07T03:58:31;93240.94;;;11.87;65.44
61292;BME280;47165;42.664;23.368;2024-01-07T04:00:56;93234.50;;;11.91;64.35
61292;BME280;47165;42.664;23.368;2024-01-07T04:03:22;93224.03;;;11.91;63.15
61292;BME280;47165;42.664;23.368;2024-01-07T04:05:47;93224.44;;;11.86;62.83
61292;BME280;47165;42.664;23.368;2024-01-07T04:08:12;93222.50;;;11.79;62.88
61292;BME280;47165;42.664;23.368;2024-01-07T04:10:40;93216.44;;;11.68;62.77
61292;BME280;47165;42.664;23.368;2024-01-07T04:13:06;93217.28;;;11.50;63.58
61292;BME280;47165;42.664;23.368;2024-01-07T04:15:31;93215.78;;;11.47;63.58
61292;BME280;47165;42.664;23.368;2024-01-07T04:18:01;93217.25;;;11.40;64.19
61292;BME280;47165;42.664;23.368;2024-01-07T04:20:26;93222.22;;;11.33;64.77
61292;BME280;47165;42.664;23.368;2024-01-07T04:22:52;93208.59;;;11.30;64.92
61292;BME280;47165;42.664;23.368;2024-01-07T04:25:17;93209.84;;;11.35;64.75
61292;BME280;47165;42.664;23.368;2024-01-07T04:27:42;93211.22;;;11.39;64.56
61292;BME280;47165;42.664;23.368;2024-01-07T04:30:08;93207.78;;;11.29;64.80
61292;BME280;47165;42.664;23.368;2024-01-07T04:32:34;93203.78;;;11.25;65.15
61292;BME280;47165;42.664;23.368;2024-01-07T04:35:00;93200.59;;;11.21;65.34
61292;BME280;47165;42.664;23.368;2024-01-07T04:37:25;93199.25;;;11.27;64.81
61292;BME280;47165;42.664;23.368;2024-01-07T04:39:51;93192.50;;;11.15;65.22
61292;BME280;47165;42.664;23.368;2024-01-07T04:42:17;93189.75;;;11.16;65.44
61292;BME280;47165;42.664;23.368;2024-01-07T04:44:42;93190.03;;;11.03;65.80
61292;BME280;47165;42.664;23.368;2024-01-07T04:47:28;93188.41;;;11.22;65.62
61292;BME280;47165;42.664;23.368;2024-01-07T04:49:54;93178.75;;;11.22;65.45
61292;BME280;47165;42.664;23.368;2024-01-07T04:52:22;93183.16;;;11.22;65.66
61292;BME280;47165;42.664;23.368;2024-01-07T04:54:47;93191.13;;;11.20;65.70
61292;BME280;47165;42.664;23.368;2024-01-07T04:57:13;93206.94;;;11.19;65.93
61292;BME280;47165;42.664;23.368;2024-01-07T04:59:38;93211.06;;;11.21;66.04
61292;BME280;47165;42.664;23.368;2024-01-07T05:02:04;93207.63;;;11.21;66.07
61292;BME280;47165;42.664;23.368;2024-01-07T05:04:29;93213.81;;;11.20;66.02
61292;BME280;47165;42.664;23.368;2024-01-07T05:06:54;93201.44;;;11.12;66.29
61292;BME280;47165;42.664;23.368;2024-01-07T05:09:20;93185.63;;;11.14;66.26
61292;BME280;47165;42.664;23.368;2024-01-07T05:11:45;93187.56;;;11.12;66.43
61292;BME280;47165;42.664;23.368;2024-01-07T05:14:11;93185.50;;;11.05;66.63
61292;BME280;47165;42.664;23.368;2024-01-07T05:16:37;93160.84;;;10.98;66.88
61292;BME280;47165;42.664;23.368;2024-01-07T05:19:02;93175.84;;;10.96;66.71
61292;BME280;47165;42.664;23.368;2024-01-07T05:21:28;93194.81;;;10.98;66.62
61292;BME280;47165;42.664;23.368;2024-01-07T05:23:54;93188.31;;;10.93;66.22
61292;BME280;47165;42.664;23.368;2024-01-07T05:26:20;93204.41;;;10.88;66.39
61292;BME280;47165;42.664;23.368;2024-01-07T05:28:46;93205.50;;;10.85;66.55
61292;BME280;47165;42.664;23.368;2024-01-07T05:31:17;93191.19;;;10.80;67.08
61292;BME280;47165;42.664;23.368;2024-01-07T05:33:43;93193.69;;;10.81;67.01
61292;BME280;47165;42.664;23.368;2024-01-07T05:36:10;93196.53;;;10.78;67.04
61292;BME280;47165;42.664;23.368;2024-01-07T05:38:35;93187.72;;;10.70;67.21
61292;BME280;47165;42.664;23.368;2024-01-07T05:41:00;93172.34;;;10.76;67.07
61292;BME280;47165;42.664;23.368;2024-01-07T05:43:26;93175.81;;;10.77;67.03
61292;BME280;47165;42.664;23.368;2024-01-07T05:45:51;93177.03;;;10.73;67.48
61292;BME280;47165;42.664;23.368;2024-01-07T05:48:17;93184.69;;;10.64;67.49
61292;BME280;47165;42.664;23.368;2024-01-07T05:50:42;93192.53;;;10.64;67.45
61292;BME280;47165;42.664;23.368;2024-01-07T05:53:08;93199.13;;;10.69;67.50
61292;BME280;47165;42.664;23.368;2024-01-07T05:55:33;93196.81;;;10.75;67.30
61292;BME280;47165;42.664;23.368;2024-01-07T05:57:58;93213.59;;;10.73;67.37
61292;BME280;47165;42.664;23.368;2024-01-07T06:00:24;93214.09;;;10.66;67.46
61292;BME280;47165;42.664;23.368;2024-01-07T06:02:49;93216.19;;;10.73;67.17
61292;BME280;47165;42.664;23.368;2024-01-07T06:05:15;93203.91;;;10.63;67.78
61292;BME280;47165;42.664;23.368;2024-01-07T06:07:40;93188.16;;;10.75;67.41
61292;BME280;47165;42.664;23.368;2024-01-07T06:10:06;93181.72;;;10.79;67.32
61292;BME280;47165;42.664;23.368;2024-01-07T06:12:31;93179.06;;;10.69;67.80
61292;BME280;47165;42.664;23.368;2024-01-07T06:14:57;93179.16;;;10.58;68.10
61292;BME280;47165;42.664;23.368;2024-01-07T06:17:22;93179.03;;;10.59;68.45
61292;BME280;47165;42.664;23.368;2024-01-07T06:19:48;93176.88;;;10.64;68.15
61292;BME280;47165;42.664;23.368;2024-01-07T06:22:13;93181.78;;;10.58;68.43
61292;BME280;47165;42.664;23.368;2024-01-07T06:24:38;93185.22;;;10.58;68.23
61292;BME280;47165;42.664;23.368;2024-01-07T06:27:04;93180.38;;;10.54;68.26
61292;BME280;47165;42.664;23.368;2024-01-07T06:29:30;93187.16;;;10.56;68.10
61292;BME280;47165;42.664;23.368;2024-01-07T06:31:55;93181.41;;;10.62;67.69
61292;BME280;47165;42.664;23.368;2024-01-07T06:34:20;93186.63;;;10.62;67.85
61292;BME280;47165;42.664;23.368;2024-01-07T06:36:46;93190.88;;;10.63;67.87
61292;BME280;47165;42.664;23.368;2024-01-07T06:39:12;93189.66;;;10.67;67.72
61292;BME280;47165;42.664;23.368;2024-01-07T06:41:38;93200.09;;;10.67;67.86
61292;BME280;47165;42.664;23.368;2024-01-07T06:44:03;93205.06;;;10.71;67.80
61292;BME280;47165;42.664;23.368;2024-01-07T06:46:29;93208.59;;;10.70;67.90
61292;BME280;47165;42.664;23.368;2024-01-07T06:48:54;93223.69;;;10.66;68.10
61292;BME280;47165;42.664;23.368;2024-01-07T06:51:20;93226.84;;;10.60;68.57
61292;BME280;47165;42.664;23.368;2024-01-07T06:53:45;93220.28;;;10.65;68.48
61292;BME280;47165;42.664;23.368;2024-01-07T06:56:10;93219.63;;;10.73;68.07
61292;BME280;47165;42.664;23.368;2024-01-07T06:58:36;93217.94;;;10.72;68.13
61292;BME280;47165;42.664;23.368;2024-01-07T07:01:01;93217.28;;;10.80;68.05
61292;BME280;47165;42.664;23.368;2024-01-07T07:03:27;93212.63;;;10.83;67.81
61292;BME280;47165;42.664;23.368;2024-01-07T07:05:53;93214.44;;;10.83;67.77
61292;BME280;47165;42.664;23.368;2024-01-07T07:08:18;93220.75;;;10.90;67.64
61292;BME280;47165;42.664;23.368;2024-01-07T07:10:44;93224.72;;;10.84;68.00
61292;BME280;47165;42.664;23.368;2024-01-07T07:13:11;93222.09;;;10.75;68.71
61292;BME280;47165;42.664;23.368;2024-01-07T07:15:37;93205.91;;;10.81;68.55
61292;BME280;47165;42.664;23.368;2024-01-07T07:18:02;93189.56;;;10.79;68.79
61292;BME280;47165;42.664;23.368;2024-01-07T07:20:28;93178.00;;;10.81;69.09
61292;BME280;47165;42.664;23.368;2024-01-07T07:22:53;93201.38;;;10.93;68.64
61292;BME280;47165;42.664;23.368;2024-01-07T07:25:19;93198.78;;;10.83;68.17
61292;BME280;47165;42.664;23.368;2024-01-07T07:27:44;93191.88;;;10.82;68.13
61292;BME280;47165;42.664;23.368;2024-01-07T07:30:10;93189.72;;;10.87;68.20
61292;BME280;47165;42.664;23.368;2024-01-07T07:32:39;93187.78;;;10.89;68.17
61292;BME280;47165;42.664;23.368;2024-01-07T07:35:04;93202.47;;;10.90;68.58
61292;BME280;47165;42.664;23.368;2024-01-07T07:37:30;93202.63;;;10.98;68.62
61292;BME280;47165;42.664;23.368;2024-01-07T07:39:55;93209.38;;;11.01;68.64
61292;BME280;47165;42.664;23.368;2024-01-07T07:42:21;93211.72;;;11.04;68.56
61292;BME280;47165;42.664;23.368;2024-01-07T07:44:46;93202.53;;;11.10;67.99
61292;BME280;47165;42.664;23.368;2024-01-07T07:47:13;93199.63;;;11.13;67.81
61292;BME280;47165;42.664;23.368;2024-01-07T07:49:38;93197.47;;;11.18;67.58
61292;BME280;47165;42.664;23.368;2024-01-07T07:52:07;93192.78;;;11.31;67.36
61292;BME280;47165;42.664;23.368;2024-01-07T07:54:33;93185.22;;;11.38;67.17
61292;BME280;47165;42.664;23.368;2024-01-07T07:56:59;93190.88;;;11.33;67.60
61292;BME280;47165;42.664;23.368;2024-01-07T07:59:24;93191.56;;;11.35;67.89
61292;BME280;47165;42.664;23.368;2024-01-07T08:01:49;93190.06;;;11.42;67.94
61292;BME280;47165;42.664;23.368;2024-01-07T08:04:15;93174.22;;;11.44;68.24
61292;BME280;47165;42.664;23.368;2024-01-07T08:06:41;93177.38;;;11.47;68.22
61292;BME280;47165;42.664;23.368;2024-01-07T08:09:08;93190.03;;;11.52;68.07
61292;BME280;47165;42.664;23.368;2024-01-07T08:11:34;93185.38;;;11.56;67.96
61292;BME280;47165;42.664;23.368;2024-01-07T08:13:59;93185.25;;;11.67;67.44
61292;BME280;47165;42.664;23.368;2024-01-07T08:16:27;93186.75;;;11.70;67.34
61292;BME280;47165;42.664;23.368;2024-01-07T08:18:53;93193.09;;;11.67;67.18
61292;BME280;47165;42.664;23.368;2024-01-07T08:21:22;93191.97;;;11.70;67.31
61292;BME280;47165;42.664;23.368;2024-01-07T08:23:48;93201.31;;;11.72;66.95
61292;BME280;47165;42.664;23.368;2024-01-07T08:26:18;93190.59;;;11.75;67.05
61292;BME280;47165;42.664;23.368;2024-01-07T08:28:48;93186.44;;;11.82;66.71
61292;BME280;47165;42.664;23.368;2024-01-07T08:31:14;93189.34;;;11.79;66.23
61292;BME280;47165;42.664;23.368;2024-01-07T08:33:40;93192.22;;;11.86;66.01
61292;BME280;47165;42.664;23.368;2024-01-07T08:36:06;93188.28;;;11.92;65.71
61292;BME280;47165;42.664;23.368;2024-01-07T08:38:31;93191.00;;;11.90;65.91
61292;BME280;47165;42.664;23.368;2024-01-07T08:40:57;93189.47;;;11.87;66.70
61292;BME280;47165;42.664;23.368;2024-01-07T08:43:22;93181.09;;;11.94;66.34
61292;BME280;47165;42.664;23.368;2024-01-07T08:45:48;93190.56;;;12.04;65.78
61292;BME280;47165;42.664;23.368;2024-01-07T08:48:13;93189.91;;;12.02;65.68
61292;BME280;47165;42.664;23.368;2024-01-07T08:50:39;93188.09;;;12.03;65.77
61292;BME280;47165;42.664;23.368;2024-01-07T08:53:04;93179.69;;;12.09;65.87
61292;BME280;47165;42.664;23.368;2024-01-07T08:55:30;93178.72;;;12.10;66.12
61292;BME280;47165;42.664;23.368;2024-01-07T08:57:56;93178.72;;;12.10;66.42
61292;BME280;47165;42.664;23.368;2024-01-07T09:00:22;93182.53;;;12.16;66.36
61292;BME280;47165;42.664;23.368;2024-01-07T09:02:51;93165.09;;;12.16;66.48
61292;BME280;47165;42.664;23.368;2024-01-07T09:05:17;93178.53;;;12.21;66.72
61292;BME280;47165;42.664;23.368;2024-01-07T09:07:43;93181.00;;;12.33;66.58
61292;BME280;47165;42.664;23.368;2024-01-07T09:10:08;93182.88;;;12.40;66.11
61292;BME280;47165;42.664;23.368;2024-01-07T09:12:36;93181.94;;;12.41;66.00
61292;BME280;47165;42.664;23.368;2024-01-07T09:15:04;93167.19;;;12.40;66.44
61292;BME280;47165;42.664;23.368;2024-01-07T09:17:31;93170.06;;;12.47;66.37
61292;BME280;47165;42.664;23.368;2024-01-07T09:19:56;93176.78;;;12.59;66.25
61292;BME280;47165;42.664;23.368;2024-01-07T09:22:22;93185.09;;;12.73;66.14
61292;BME280;47165;42.664;23.368;2024-01-07T09:24:47;93177.31;;;12.91;64.89
61292;BME280;47165;42.664;23.368;2024-01-07T09:27:13;93181.28;;;12.95;64.88
61292;BME280;47165;42.664;23.368;2024-01-07T09:29:39;93184.81;;;13.03;64.14
61292;BME280;47165;42.664;23.368;2024-01-07T09:32:05;93181.91;;;13.06;63.92
61292;BME280;47165;42.664;23.368;2024-01-07T09:34:30;93168.88;;;13.15;63.29
61292;BME280;47165;42.664;23.368;2024-01-07T09:36:56;93158.00;;;13.09;63.67
61292;BME280;47165;42.664;23.368;2024-01-07T09:39:21;93160.84;;;13.16;63.72
61292;BME280;47165;42.664;23.368;2024-01-07T09:41:46;93158.91;;;13.18;63.66
61292;BME280;47165;42.664;23.368;2024-01-07T09:44:13;93150.44;;;13.24;63.67
61292;BME280;47165;42.664;23.368;2024-01-07T09:46:39;93148.63;;;13.35;63.31
61292;BME280;47165;42.664;23.368;2024-01-07T09:49:07;93148.25;;;13.47;62.82
61292;BME280;47165;42.664;23.368;2024-01-07T09:51:35;93160.44;;;13.57;62.17
61292;BME280;47165;42.664;23.368;2024-01-07T09:54:03;93166.97;;;13.71;60.66
61292;BME280;47165;42.664;23.368;2024-01-07T09:56:38;93163.53;;;13.70;59.98
61292;BME280;47165;42.664;23.368;2024-01-07T09:59:07;93158.44;;;13.68;60.14
61292;BME280;47165;42.664;23.368;2024-01-07T10:01:34;93168.47;;;13.73;60.25
61292;BME280;47165;42.664;23.368;2024-01-07T10:04:01;93160.38;;;13.84;60.00
61292;BME280;47165;42.664;23.368;2024-01-07T10:06:27;93150.53;;;13.86;59.63
61292;BME280;47165;42.664;23.368;2024-01-07T10:08:52;93153.16;;;13.86;59.69
61292;BME280;47165;42.664;23.368;2024-01-07T10:11:18;93156.88;;;14.02;57.96
61292;BME280;47165;42.664;23.368;2024-01-07T10:13:46;93157.38;;;14.05;57.26
61292;BME280;47165;42.664;23.368;2024-01-07T10:16:16;93158.53;;;14.03;57.13
61292;BME280;47165;42.664;23.368;2024-01-07T10:18:42;93138.56;;;14.10;57.72
61292;BME280;47165;42.664;23.368;2024-01-07T10:21:07;93119.09;;;14.21;58.11
61292;BME280;47165;42.664;23.368;2024-01-07T10:23:33;93129.81;;;14.27;57.52
61292;BME280;47165;42.664;23.368;2024-01-07T10:25:58;93125.88;;;14.32;56.89
61292;BME280;47165;42.664;23.368;2024-01-07T10:28:24;93120.81;;;14.38;56.77
61292;BME280;47165;42.664;23.368;2024-01-07T10:30:50;93110.94;;;14.58;56.44
61292;BME280;47165;42.664;23.368;2024-01-07T10:33:19;93102.47;;;14.73;55.17
61292;BME280;47165;42.664;23.368;2024-01-07T10:36:05;93103.84;;;14.93;55.25
61292;BME280;47165;42.664;23.368;2024-01-07T10:38:32;93094.66;;;15.05;54.72
61292;BME280;47165;42.664;23.368;2024-01-07T10:41:00;93101.72;;;15.21;53.83
61292;BME280;47165;42.664;23.368;2024-01-07T10:43:29;93097.13;;;15.32;53.29
61292;BME280;47165;42.664;23.368;2024-01-07T10:45:55;93087.13;;;15.35;52.97
61292;BME280;47165;42.664;23.368;2024-01-07T10:48:25;93085.00;;;15.47;53.56
61292;BME280;47165;42.664;23.368;2024-01-07T10:51:05;93085.00;;;15.63;53.38
61292;BME280;47165;42.664;23.368;2024-01-07T10:56:45;93110.16;;;15.82;52.12
61292;BME280;47165;42.664;23.368;2024-01-07T10:59:14;93114.28;;;15.77;51.53
61292;BME280;47165;42.664;23.368;2024-01-07T11:01:40;93105.56;;;15.84;50.77
61292;BME280;47165;42.664;23.368;2024-01-07T11:04:23;93090.25;;;15.96;50.85
61292;BME280;47165;42.664;23.368;2024-01-07T11:07:09;93088.28;;;15.98;51.15
61292;BME280;47165;42.664;23.368;2024-01-07T11:10:08;93093.53;;;15.98;49.41
61292;BME280;47165;42.664;23.368;2024-01-07T11:12:32;93093.53;;;15.98;49.65
61292;BME280;47165;42.664;23.368;2024-01-07T11:14:58;93089.09;;;15.99;49.77
61292;BME280;47165;42.664;23.368;2024-01-07T11:17:44;93090.91;;;16.06;48.92
61292;BME280;47165;42.664;23.368;2024-01-07T11:20:21;93097.66;;;16.01;49.33
61292;BME280;47165;42.664;23.368;2024-01-07T11:22:47;93098.81;;;15.98;49.32
61292;BME280;47165;42.664;23.368;2024-01-07T11:25:39;93089.25;;;16.05;49.33
61292;BME280;47165;42.664;23.368;2024-01-07T11:28:05;93085.50;;;16.00;49.27
61292;BME280;47165;42.664;23.368;2024-01-07T11:30:38;93087.78;;;15.95;49.78
61292;BME280;47165;42.664;23.368;2024-01-07T11:33:11;93083.81;;;15.99;49.25
61292;BME280;47165;42.664;23.368;2024-01-07T11:35:57;93077.91;;;16.05;49.35
61292;BME280;47165;42.664;23.368;2024-01-07T11:38:26;93079.06;;;16.02;49.47
61292;BME280;47165;42.664;23.368;2024-01-07T11:40:54;93085.16;;;15.95;48.85
61292;BME280;47165;42.664;23.368;2024-01-07T11:43:24;93086.97;;;15.94;49.00
61292;BME280;47165;42.664;23.368;2024-01-07T11:45:50;93083.81;;;15.99;49.29
61292;BME280;47165;42.664;23.368;2024-01-07T11:48:17;93090.91;;;15.98;48.96
61292;BME280;47165;42.664;23.368;2024-01-07T11:50:43;93092.22;;;15.94;48.83
61292;BME280;47165;42.664;23.368;2024-01-07T11:53:08;93095.38;;;15.98;48.70
61292;BME280;47165;42.664;23.368;2024-01-07T11:55:34;93092.22;;;16.02;48.84
61292;BME280;47165;42.664;23.368;2024-01-07T11:58:02;93099.13;;;15.95;47.58
61292;BME280;47165;42.664;23.368;2024-01-07T12:00:30;93101.94;;;15.94;47.88
61292;BME280;47165;42.664;23.368;2024-01-07T12:02:56;93094.06;;;15.77;47.07
61292;BME280;47165;42.664;23.368;2024-01-07T12:05:23;93088.31;;;15.82;47.58
61292;BME280;47165;42.664;23.368;2024-01-07T12:07:48;93080.25;;;15.83;47.86
61292;BME280;47165;42.664;23.368;2024-01-07T12:10:15;93080.25;;;15.83;47.47
61292;BME280;47165;42.664;23.368;2024-01-07T12:12:41;93087.47;;;15.89;48.02
61292;BME280;47165;42.664;23.368;2024-01-07T12:15:08;93083.03;;;15.82;47.62
61292;BME280;47165;42.664;23.368;2024-01-07T12:17:33;93088.59;;;15.62;47.81
61292;BME280;47165;42.664;23.368;2024-01-07T12:20:00;93086.63;;;15.56;47.32
61292;BME280;47165;42.664;23.368;2024-01-07T12:22:28;93089.25;;;15.56;47.62
61292;BME280;47165;42.664;23.368;2024-01-07T12:25:10;93095.03;;;15.60;47.63
61292;BME280;47165;42.664;23.368;2024-01-07T12:27:36;93099.63;;;15.49;47.18
61292;BME280;47165;42.664;23.368;2024-01-07T12:30:04;93099.31;;;15.53;47.53
61292;BME280;47165;42.664;23.368;2024-01-07T12:32:30;93103.25;;;15.57;48.22
61292;BME280;47165;42.664;23.368;2024-01-07T12:34:59;93090.75;;;15.34;48.62
61292;BME280;47165;42.664;23.368;2024-01-07T12:37:28;93093.69;;;15.23;49.00
61292;BME280;47165;42.664;23.368;2024-01-07T12:39:54;93092.03;;;15.05;49.29
61292;BME280;47165;42.664;23.368;2024-01-07T12:42:20;93099.84;;;14.81;49.82
61292;BME280;47165;42.664;23.368;2024-01-07T12:44:50;93094.31;;;15.00;50.24
61292;BME280;47165;42.664;23.368;2024-01-07T12:47:16;93092.84;;;15.06;50.02
61292;BME280;47165;42.664;23.368;2024-01-07T12:49:41;93094.13;;;14.94;50.36